sensor_id;sensor_type;location;lat;lon;timestamp;pressure;altitude;pressure_sealevel;temperature;humidity
72855;BME280;60991;51.278;22.550;2023-09-18T00:01:07;99466.44;;;21.43;67.70
72855;BME280;60991;51.278;22.550;2023-09-18T00:02:38;99467.75;;;21.46;67.64
72855;BME280;60991;51.278;22.550;2023-09-18T00:04:09;99466.34;;;21.48;67.70
72855;BME280;60991;51.278;22.550;2023-09-18T00:05:39;99468.44;;;21.51;67.44
72855;BME280;60991;51.278;22.550;2023-09-18T00:07:09;99468.44;;;21.51;67.30
72855;BME280;60991;51.278;22.550;2023-09-18T00:08:40;99471.59;;;21.53;67.05
72855;BME280;60991;51.278;22.550;2023-09-18T00:10:11;99461.22;;;21.47;67.26
72855;BME280;60991;51.278;22.550;2023-09-18T00:11:41;99464.84;;;21.42;67.38
72855;BME280;60991;51.278;22.550;2023-09-18T00:13:11;99464.34;;;21.40;67.39
72855;BME280;60991;51.278;22.550;2023-09-18T00:14:41;99457.47;;;21.34;67.87
72855;BME280;60991;51.278;22.550;2023-09-18T00:16:11;99454.59;;;21.30;67.82
72855;BME280;60991;51.278;22.550;2023-09-18T00:17:42;99459.41;;;21.33;67.83
72855;BME280;60991;51.278;22.550;2023-09-18T00:19:12;99457.16;;;21.35;67.46
72855;BME280;60991;51.278;22.550;2023-09-18T00:20:43;99454.75;;;21.34;67.53
72855;BME280;60991;51.278;22.550;2023-09-18T00:22:13;99453.34;;;21.36;67.29
72855;BME280;60991;51.278;22.550;2023-09-18T00:23:43;99453.06;;;21.38;67.35
72855;BME280;60991;51.278;22.550;2023-09-18T00:25:14;99455.44;;;21.39;67.34
72855;BME280;60991;51.278;22.550;2023-09-18T00:26:44;99446.84;;;21.37;67.21
72855;BME280;60991;51.278;22.550;2023-09-18T00:28:14;99435.25;;;21.37;67.21
72855;BME280;60991;51.278;22.550;2023-09-18T00:29:44;99450.66;;;21.36;67.30
72855;BME280;60991;51.278;22.550;2023-09-18T00:31:14;99444.75;;;21.34;67.15
72855;BME280;60991;51.278;22.550;2023-09-18T00:32:45;99445.09;;;21.33;67.21
72855;BME280;60991;51.278;22.550;2023-09-18T00:34:15;99446.19;;;21.32;67.26
72855;BME280;60991;51.278;22.550;2023-09-18T00:35:49;99446.31;;;21.27;67.40
72855;BME280;60991;51.278;22.550;2023-09-18T00:37:19;99449.00;;;21.27;67.30
72855;BME280;60991;51.278;22.550;2023-09-18T00:38:49;99440.13;;;21.26;67.28
72855;BME280;60991;51.278;22.550;2023-09-18T00:40:20;99447.41;;;21.26;67.42
72855;BME280;60991;51.278;22.550;2023-09-18T00:41:50;99445.50;;;21.26;67.03
72855;BME280;60991;51.278;22.550;2023-09-18T00:43:20;99439.31;;;21.26;67.01
72855;BME280;60991;51.278;22.550;2023-09-18T00:44:50;99443.13;;;21.25;67.31
72855;BME280;60991;51.278;22.550;2023-09-18T00:46:21;99437.53;;;21.21;67.11
72855;BME280;60991;51.278;22.550;2023-09-18T00:47:52;99444.03;;;21.20;67.33
72855;BME280;60991;51.278;22.550;2023-09-18T00:49:23;99438.09;;;21.18;67.27
72855;BME280;60991;51.278;22.550;2023-09-18T00:50:54;99442.69;;;21.18;67.40
72855;BME280;60991;51.278;22.550;2023-09-18T00:52:25;99436.50;;;21.17;67.21
72855;BME280;60991;51.278;22.550;2023-09-18T00:53:56;99440.63;;;21.15;67.27
72855;BME280;60991;51.278;22.550;2023-09-18T00:55:27;99445.03;;;21.11;67.41
72855;BME280;60991;51.278;22.550;2023-09-18T00:56:59;99442.94;;;21.07;67.54
72855;BME280;60991;51.278;22.550;2023-09-18T00:58:30;99438.97;;;21.05;67.44
72855;BME280;60991;51.278;22.550;2023-09-18T01:00:02;99440.84;;;21.04;67.41
72855;BME280;60991;51.278;22.550;2023-09-18T01:01:33;99435.75;;;21.03;67.61
72855;BME280;60991;51.278;22.550;2023-09-18T01:03:03;99438.47;;;21.03;67.36
72855;BME280;60991;51.278;22.550;2023-09-18T01:04:33;99438.75;;;21.01;67.46
72855;BME280;60991;51.278;22.550;2023-09-18T01:06:04;99442.88;;;20.99;67.51
72855;BME280;60991;51.278;22.550;2023-09-18T01:07:34;99435.41;;;20.96;67.56
72855;BME280;60991;51.278;22.550;2023-09-18T01:09:04;99441.91;;;20.95;67.38
72855;BME280;60991;51.278;22.550;2023-09-18T01:10:48;99442.50;;;20.92;67.73
72855;BME280;60991;51.278;22.550;2023-09-18T01:14:11;99443.91;;;20.89;67.77
72855;BME280;60991;51.278;22.550;2023-09-18T01:15:59;99441.81;;;20.86;67.92
72855;BME280;60991;51.278;22.550;2023-09-18T01:17:35;99443.41;;;20.87;67.75
72855;BME280;60991;51.278;22.550;2023-09-18T01:19:05;99445.91;;;20.84;67.67
72855;BME280;60991;51.278;22.550;2023-09-18T01:20:35;99443.50;;;20.82;67.73
72855;BME280;60991;51.278;22.550;2023-09-18T01:22:07;99446.22;;;20.82;67.91
72855;BME280;60991;51.278;22.550;2023-09-18T01:23:38;99441.13;;;20.81;67.81
72855;BME280;60991;51.278;22.550;2023-09-18T01:25:08;99442.22;;;20.80;67.88
72855;BME280;60991;51.278;22.550;2023-09-18T01:26:39;99444.44;;;20.78;67.91
72855;BME280;60991;51.278;22.550;2023-09-18T01:28:09;99436.94;;;20.74;67.84
72855;BME280;60991;51.278;22.550;2023-09-18T01:29:39;99446.94;;;20.74;67.99
72855;BME280;60991;51.278;22.550;2023-09-18T01:31:09;99443.16;;;20.75;67.74
72855;BME280;60991;51.278;22.550;2023-09-18T01:32:40;99443.16;;;20.75;67.93
72855;BME280;60991;51.278;22.550;2023-09-18T01:34:12;99441.03;;;20.72;68.04
72855;BME280;60991;51.278;22.550;2023-09-18T01:35:44;99441.25;;;20.62;68.56
72855;BME280;60991;51.278;22.550;2023-09-18T01:37:17;99443.97;;;20.48;69.22
72855;BME280;60991;51.278;22.550;2023-09-18T01:38:49;99437.19;;;20.37;69.69
72855;BME280;60991;51.278;22.550;2023-09-18T01:40:20;99441.56;;;20.33;69.79
72855;BME280;60991;51.278;22.550;2023-09-18T01:41:50;99443.84;;;20.26;70.17
72855;BME280;60991;51.278;22.550;2023-09-18T01:43:20;99434.88;;;20.17;70.56
72855;BME280;60991;51.278;22.550;2023-09-18T01:44:52;99433.34;;;20.11;70.84
72855;BME280;60991;51.278;22.550;2023-09-18T01:46:23;99432.25;;;20.12;70.80
72855;BME280;60991;51.278;22.550;2023-09-18T01:47:53;99436.25;;;20.14;70.81
72855;BME280;60991;51.278;22.550;2023-09-18T01:49:32;99427.66;;;20.12;70.83
72855;BME280;60991;51.278;22.550;2023-09-18T01:51:02;99429.25;;;20.27;70.19
72855;BME280;60991;51.278;22.550;2023-09-18T01:52:33;99428.31;;;20.36;69.90
72855;BME280;60991;51.278;22.550;2023-09-18T01:54:03;99432.78;;;20.41;69.75
72855;BME280;60991;51.278;22.550;2023-09-18T01:55:33;99425.88;;;20.49;69.38
72855;BME280;60991;51.278;22.550;2023-09-18T01:57:04;99426.91;;;20.39;69.81
72855;BME280;60991;51.278;22.550;2023-09-18T01:58:34;99425.38;;;20.33;69.86
72855;BME280;60991;51.278;22.550;2023-09-18T02:00:05;99426.47;;;20.32;70.14
72855;BME280;60991;51.278;22.550;2023-09-18T02:01:35;99424.00;;;20.22;70.42
72855;BME280;60991;51.278;22.550;2023-09-18T02:03:05;99427.25;;;20.05;71.06
72855;BME280;60991;51.278;22.550;2023-09-18T02:04:36;99426.94;;;19.93;71.60
72855;BME280;60991;51.278;22.550;2023-09-18T02:06:06;99425.56;;;19.95;71.50
72855;BME280;60991;51.278;22.550;2023-09-18T02:07:36;99423.47;;;19.92;71.67
72855;BME280;60991;51.278;22.550;2023-09-18T02:09:07;99431.75;;;19.96;71.55
72855;BME280;60991;51.278;22.550;2023-09-18T02:10:37;99433.66;;;19.95;71.51
72855;BME280;60991;51.278;22.550;2023-09-18T02:12:07;99425.34;;;20.05;71.06
72855;BME280;60991;51.278;22.550;2023-09-18T02:13:37;99425.78;;;19.99;71.39
72855;BME280;60991;51.278;22.550;2023-09-18T02:15:08;99426.16;;;19.92;71.62
72855;BME280;60991;51.278;22.550;2023-09-18T02:16:41;99425.44;;;19.87;71.84
72855;BME280;60991;51.278;22.550;2023-09-18T02:18:12;99418.16;;;19.87;71.81
72855;BME280;60991;51.278;22.550;2023-09-18T02:19:42;99425.03;;;19.80;72.05
72855;BME280;60991;51.278;22.550;2023-09-18T02:21:19;99425.41;;;19.73;72.64
72855;BME280;60991;51.278;22.550;2023-09-18T02:22:49;99415.88;;;19.81;72.09
72855;BME280;60991;51.278;22.550;2023-09-18T02:24:19;99426.34;;;19.96;71.33
72855;BME280;60991;51.278;22.550;2023-09-18T02:25:57;99420.97;;;20.10;70.72
72855;BME280;60991;51.278;22.550;2023-09-18T02:27:27;99428.09;;;20.19;70.34
72855;BME280;60991;51.278;22.550;2023-09-18T02:29:05;99424.78;;;20.22;70.41
72855;BME280;60991;51.278;22.550;2023-09-18T02:30:35;99425.47;;;20.28;70.05
72855;BME280;60991;51.278;22.550;2023-09-18T02:32:05;99425.16;;;20.29;69.96
72855;BME280;60991;51.278;22.550;2023-09-18T02:33:37;99418.59;;;20.22;70.23
72855;BME280;60991;51.278;22.550;2023-09-18T02:35:07;99423.66;;;20.10;70.74
72855;BME280;60991;51.278;22.550;2023-09-18T02:36:37;99419.16;;;20.05;70.83
72855;BME280;60991;51.278;22.550;2023-09-18T02:38:07;99420.47;;;19.94;71.25
72855;BME280;60991;51.278;22.550;2023-09-18T02:39:38;99420.25;;;19.90;71.35
72855;BME280;60991;51.278;22.550;2023-09-18T02:41:08;99416.88;;;19.85;71.60
72855;BME280;60991;51.278;22.550;2023-09-18T02:42:38;99418.56;;;19.81;71.77
72855;BME280;60991;51.278;22.550;2023-09-18T02:44:09;99420.25;;;19.77;71.74
72855;BME280;60991;51.278;22.550;2023-09-18T02:45:39;99414.84;;;19.77;71.80
72855;BME280;60991;51.278;22.550;2023-09-18T02:47:10;99417.03;;;19.75;71.83
72855;BME280;60991;51.278;22.550;2023-09-18T02:48:40;99417.25;;;19.64;72.33
72855;BME280;60991;51.278;22.550;2023-09-18T02:50:10;99421.94;;;19.73;72.09
72855;BME280;60991;51.278;22.550;2023-09-18T02:51:40;99418.03;;;19.65;72.28
72855;BME280;60991;51.278;22.550;2023-09-18T02:53:17;99413.31;;;19.57;72.45
72855;BME280;60991;51.278;22.550;2023-09-18T02:54:48;99420.31;;;19.58;72.30
72855;BME280;60991;51.278;22.550;2023-09-18T02:56:18;99424.09;;;19.57;72.28
72855;BME280;60991;51.278;22.550;2023-09-18T02:57:48;99419.59;;;19.52;72.67
72855;BME280;60991;51.278;22.550;2023-09-18T02:59:18;99416.16;;;19.47;72.77
72855;BME280;60991;51.278;22.550;2023-09-18T03:00:50;99413.84;;;19.40;73.03
72855;BME280;60991;51.278;22.550;2023-09-18T03:02:20;99410.72;;;19.33;73.14
72855;BME280;60991;51.278;22.550;2023-09-18T03:03:50;99422.56;;;19.32;73.43
72855;BME280;60991;51.278;22.550;2023-09-18T03:05:20;99415.47;;;19.22;73.69
72855;BME280;60991;51.278;22.550;2023-09-18T03:06:51;99418.81;;;19.14;74.11
72855;BME280;60991;51.278;22.550;2023-09-18T03:08:21;99423.69;;;19.12;73.98
72855;BME280;60991;51.278;22.550;2023-09-18T03:09:51;99419.84;;;19.18;73.87
72855;BME280;60991;51.278;22.550;2023-09-18T03:11:21;99419.78;;;19.23;73.56
72855;BME280;60991;51.278;22.550;2023-09-18T03:12:51;99418.59;;;19.29;73.48
72855;BME280;60991;51.278;22.550;2023-09-18T03:14:22;99416.22;;;19.28;73.24
72855;BME280;60991;51.278;22.550;2023-09-18T03:15:52;99407.97;;;19.19;73.75
72855;BME280;60991;51.278;22.550;2023-09-18T03:17:22;99423.13;;;19.15;74.41
72855;BME280;60991;51.278;22.550;2023-09-18T03:18:52;99428.22;;;19.17;73.73
72855;BME280;60991;51.278;22.550;2023-09-18T03:20:23;99423.84;;;19.21;73.54
72855;BME280;60991;51.278;22.550;2023-09-18T03:21:54;99419.84;;;19.18;73.65
72855;BME280;60991;51.278;22.550;2023-09-18T03:23:24;99421.72;;;19.18;73.81
72855;BME280;60991;51.278;22.550;2023-09-18T03:24:54;99423.91;;;19.16;73.76
72855;BME280;60991;51.278;22.550;2023-09-18T03:26:24;99422.25;;;19.20;73.42
72855;BME280;60991;51.278;22.550;2023-09-18T03:27:56;99426.03;;;19.19;73.67
72855;BME280;60991;51.278;22.550;2023-09-18T03:29:26;99417.72;;;19.15;73.87
72855;BME280;60991;51.278;22.550;2023-09-18T03:30:58;99416.72;;;19.11;73.90
72855;BME280;60991;51.278;22.550;2023-09-18T03:32:28;99420.06;;;19.03;74.21
72855;BME280;60991;51.278;22.550;2023-09-18T03:33:59;99415.72;;;19.07;74.29
72855;BME280;60991;51.278;22.550;2023-09-18T03:35:32;99418.13;;;19.09;74.00
72855;BME280;60991;51.278;22.550;2023-09-18T03:37:02;99412.34;;;19.15;73.83
72855;BME280;60991;51.278;22.550;2023-09-18T03:38:32;99412.13;;;19.12;73.85
72855;BME280;60991;51.278;22.550;2023-09-18T03:40:03;99410.69;;;19.00;74.50
72855;BME280;60991;51.278;22.550;2023-09-18T03:41:33;99407.44;;;19.03;74.02
72855;BME280;60991;51.278;22.550;2023-09-18T03:43:03;99416.06;;;19.00;74.27
72855;BME280;60991;51.278;22.550;2023-09-18T03:44:33;99412.59;;;19.00;74.40
72855;BME280;60991;51.278;22.550;2023-09-18T03:46:05;99406.13;;;19.01;74.22
72855;BME280;60991;51.278;22.550;2023-09-18T03:47:35;99408.00;;;19.00;74.26
72855;BME280;60991;51.278;22.550;2023-09-18T03:49:06;99412.06;;;18.98;74.26
72855;BME280;60991;51.278;22.550;2023-09-18T03:50:36;99410.47;;;18.97;73.99
72855;BME280;60991;51.278;22.550;2023-09-18T03:52:06;99406.63;;;19.03;74.15
72855;BME280;60991;51.278;22.550;2023-09-18T03:53:37;99405.53;;;19.04;74.21
72855;BME280;60991;51.278;22.550;2023-09-18T03:55:08;99407.94;;;19.06;74.01
72855;BME280;60991;51.278;22.550;2023-09-18T03:56:38;99402.25;;;19.07;73.81
72855;BME280;60991;51.278;22.550;2023-09-18T03:58:08;99404.06;;;19.12;73.70
72855;BME280;60991;51.278;22.550;2023-09-18T03:59:38;99406.47;;;19.13;73.61
72855;BME280;60991;51.278;22.550;2023-09-18T04:01:08;99405.66;;;19.13;73.59
72855;BME280;60991;51.278;22.550;2023-09-18T04:02:39;99402.84;;;19.04;73.60
72855;BME280;60991;51.278;22.550;2023-09-18T04:04:09;99410.97;;;18.99;74.15
72855;BME280;60991;51.278;22.550;2023-09-18T04:05:39;99398.63;;;18.98;74.13
72855;BME280;60991;51.278;22.550;2023-09-18T04:07:09;99402.13;;;18.98;74.14
72855;BME280;60991;51.278;22.550;2023-09-18T04:08:40;99405.88;;;18.97;74.15
72855;BME280;60991;51.278;22.550;2023-09-18T04:10:10;99407.50;;;18.98;74.02
72855;BME280;60991;51.278;22.550;2023-09-18T04:11:40;99403.59;;;18.91;74.41
72855;BME280;60991;51.278;22.550;2023-09-18T04:13:10;99401.47;;;18.88;74.34
72855;BME280;60991;51.278;22.550;2023-09-18T04:14:41;99403.38;;;18.87;74.38
72855;BME280;60991;51.278;22.550;2023-09-18T04:16:11;99406.63;;;18.84;74.59
72855;BME280;60991;51.278;22.550;2023-09-18T04:17:41;99404.97;;;18.88;74.66
72855;BME280;60991;51.278;22.550;2023-09-18T04:19:11;99399.06;;;18.86;74.89
72855;BME280;60991;51.278;22.550;2023-09-18T04:20:41;99402.28;;;18.88;74.54
72855;BME280;60991;51.278;22.550;2023-09-18T04:22:12;99408.81;;;19.01;73.96
72855;BME280;60991;51.278;22.550;2023-09-18T04:23:42;99410.16;;;19.17;73.38
72855;BME280;60991;51.278;22.550;2023-09-18T04:25:12;99410.91;;;19.23;73.16
72855;BME280;60991;51.278;22.550;2023-09-18T04:26:43;99407.97;;;19.19;72.92
72855;BME280;60991;51.278;22.550;2023-09-18T04:28:15;99403.25;;;19.11;73.55
72855;BME280;60991;51.278;22.550;2023-09-18T04:29:46;99400.88;;;19.10;73.60
72855;BME280;60991;51.278;22.550;2023-09-18T04:31:16;99399.47;;;19.12;73.61
72855;BME280;60991;51.278;22.550;2023-09-18T04:32:46;99403.34;;;19.06;73.65
72855;BME280;60991;51.278;22.550;2023-09-18T04:34:16;99395.41;;;19.15;72.98
72855;BME280;60991;51.278;22.550;2023-09-18T04:35:47;99394.75;;;19.23;73.23
72855;BME280;60991;51.278;22.550;2023-09-18T04:37:17;99394.56;;;19.33;72.47
72855;BME280;60991;51.278;22.550;2023-09-18T04:38:47;99391.81;;;19.38;72.05
72855;BME280;60991;51.278;22.550;2023-09-18T04:40:17;99393.31;;;19.44;72.08
72855;BME280;60991;51.278;22.550;2023-09-18T04:41:48;99396.75;;;19.50;71.86
72855;BME280;60991;51.278;22.550;2023-09-18T04:43:18;99400.16;;;19.55;71.46
72855;BME280;60991;51.278;22.550;2023-09-18T04:44:48;99385.88;;;19.55;71.51
72855;BME280;60991;51.278;22.550;2023-09-18T04:46:18;99398.91;;;19.48;71.75
72855;BME280;60991;51.278;22.550;2023-09-18T04:47:48;99404.97;;;19.40;72.25
72855;BME280;60991;51.278;22.550;2023-09-18T04:49:18;99402.34;;;19.34;72.31
72855;BME280;60991;51.278;22.550;2023-09-18T04:50:49;99392.06;;;19.23;72.74
72855;BME280;60991;51.278;22.550;2023-09-18T04:52:19;99403.50;;;18.96;73.74
72855;BME280;60991;51.278;22.550;2023-09-18T04:53:49;99406.56;;;18.89;74.55
72855;BME280;60991;51.278;22.550;2023-09-18T04:55:19;99402.56;;;18.87;74.41
72855;BME280;60991;51.278;22.550;2023-09-18T04:56:50;99401.75;;;18.86;74.36
72855;BME280;60991;51.278;22.550;2023-09-18T04:58:20;99398.56;;;18.84;74.49
72855;BME280;60991;51.278;22.550;2023-09-18T04:59:50;99406.63;;;18.84;74.32
72855;BME280;60991;51.278;22.550;2023-09-18T05:01:20;99407.94;;;18.87;74.56
72855;BME280;60991;51.278;22.550;2023-09-18T05:02:50;99398.28;;;18.86;74.21
72855;BME280;60991;51.278;22.550;2023-09-18T05:04:21;99399.38;;;18.85;74.57
72855;BME280;60991;51.278;22.550;2023-09-18T05:05:51;99396.91;;;18.88;74.17
72855;BME280;60991;51.278;22.550;2023-09-18T05:07:21;99401.59;;;18.96;74.56
72855;BME280;60991;51.278;22.550;2023-09-18T05:08:52;99400.50;;;18.97;74.28
72855;BME280;60991;51.278;22.550;2023-09-18T05:10:22;99397.31;;;18.95;74.44
72855;BME280;60991;51.278;22.550;2023-09-18T05:11:52;99393.47;;;19.01;74.15
72855;BME280;60991;51.278;22.550;2023-09-18T05:13:23;99399.34;;;19.03;74.14
72855;BME280;60991;51.278;22.550;2023-09-18T05:14:53;99395.94;;;18.98;74.42
72855;BME280;60991;51.278;22.550;2023-09-18T05:16:23;99391.88;;;19.00;74.49
72855;BME280;60991;51.278;22.550;2023-09-18T05:17:53;99393.16;;;19.03;74.77
72855;BME280;60991;51.278;22.550;2023-09-18T05:19:23;99395.00;;;19.08;74.31
72855;BME280;60991;51.278;22.550;2023-09-18T05:20:54;99385.22;;;19.12;74.22
72855;BME280;60991;51.278;22.550;2023-09-18T05:22:24;99385.66;;;19.19;74.07
72855;BME280;60991;51.278;22.550;2023-09-18T05:23:54;99386.97;;;19.21;74.00
72855;BME280;60991;51.278;22.550;2023-09-18T05:25:26;99387.25;;;19.20;74.35
72855;BME280;60991;51.278;22.550;2023-09-18T05:26:56;99399.53;;;19.26;74.19
72855;BME280;60991;51.278;22.550;2023-09-18T05:28:26;99386.16;;;19.21;74.69
72855;BME280;60991;51.278;22.550;2023-09-18T05:29:56;99391.75;;;19.24;74.27
72855;BME280;60991;51.278;22.550;2023-09-18T05:31:26;99406.81;;;19.25;74.50
72855;BME280;60991;51.278;22.550;2023-09-18T05:32:57;99401.94;;;19.27;74.27
72855;BME280;60991;51.278;22.550;2023-09-18T05:34:28;99399.41;;;19.17;74.81
72855;BME280;60991;51.278;22.550;2023-09-18T05:35:58;99400.28;;;19.13;75.14
72855;BME280;60991;51.278;22.550;2023-09-18T05:37:28;99392.09;;;19.04;75.54
72855;BME280;60991;51.278;22.550;2023-09-18T05:38:58;99398.78;;;19.07;75.51
72855;BME280;60991;51.278;22.550;2023-09-18T05:40:29;99392.81;;;19.10;75.28
72855;BME280;60991;51.278;22.550;2023-09-18T05:41:59;99395.13;;;19.16;75.24
72855;BME280;60991;51.278;22.550;2023-09-18T05:43:29;99386.25;;;19.16;75.24
72855;BME280;60991;51.278;22.550;2023-09-18T05:44:59;99384.06;;;19.18;75.10
72855;BME280;60991;51.278;22.550;2023-09-18T05:46:30;99383.75;;;19.19;75.16
72855;BME280;60991;51.278;22.550;2023-09-18T05:48:00;99379.47;;;19.18;75.24
72855;BME280;60991;51.278;22.550;2023-09-18T05:49:31;99377.28;;;19.20;75.45
72855;BME280;60991;51.278;22.550;2023-09-18T05:51:01;99378.03;;;19.26;75.17
72855;BME280;60991;51.278;22.550;2023-09-18T05:52:31;99371.03;;;19.25;75.36
72855;BME280;60991;51.278;22.550;2023-09-18T05:54:01;99372.06;;;19.29;74.98
72855;BME280;60991;51.278;22.550;2023-09-18T05:55:32;99366.16;;;19.27;75.00
72855;BME280;60991;51.278;22.550;2023-09-18T05:57:03;99372.34;;;19.27;75.43
72855;BME280;60991;51.278;22.550;2023-09-18T05:58:33;99370.34;;;19.33;75.14
72855;BME280;60991;51.278;22.550;2023-09-18T06:00:04;99373.47;;;19.40;75.00
72855;BME280;60991;51.278;22.550;2023-09-18T06:01:35;99371.78;;;19.44;74.82
72855;BME280;60991;51.278;22.550;2023-09-18T06:03:05;99361.81;;;19.45;74.90
72855;BME280;60991;51.278;22.550;2023-09-18T06:04:35;99364.56;;;19.58;74.56
72855;BME280;60991;51.278;22.550;2023-09-18T06:06:06;99364.75;;;19.62;74.14
72855;BME280;60991;51.278;22.550;2023-09-18T06:07:36;99358.50;;;19.66;74.02
72855;BME280;60991;51.278;22.550;2023-09-18T06:09:06;99362.47;;;19.69;73.86
72855;BME280;60991;51.278;22.550;2023-09-18T06:10:36;99356.47;;;19.72;73.80
72855;BME280;60991;51.278;22.550;2023-09-18T06:12:07;99361.69;;;19.82;73.30
72855;BME280;60991;51.278;22.550;2023-09-18T06:13:37;99358.72;;;19.84;73.32
72855;BME280;60991;51.278;22.550;2023-09-18T06:15:08;99358.88;;;19.87;73.10
72855;BME280;60991;51.278;22.550;2023-09-18T06:16:39;99362.88;;;19.90;72.92
72855;BME280;60991;51.278;22.550;2023-09-18T06:18:09;99363.69;;;19.90;72.98
72855;BME280;60991;51.278;22.550;2023-09-18T06:19:39;99366.38;;;19.90;72.94
72855;BME280;60991;51.278;22.550;2023-09-18T06:21:09;99366.50;;;19.85;73.12
72855;BME280;60991;51.278;22.550;2023-09-18T06:22:40;99361.50;;;19.79;73.26
72855;BME280;60991;51.278;22.550;2023-09-18T06:24:10;99358.28;;;19.77;73.83
72855;BME280;60991;51.278;22.550;2023-09-18T06:25:40;99360.69;;;19.78;73.57
72855;BME280;60991;51.278;22.550;2023-09-18T06:27:11;99357.19;;;19.78;73.57
72855;BME280;60991;51.278;22.550;2023-09-18T06:28:41;99354.81;;;19.76;73.72
72855;BME280;60991;51.278;22.550;2023-09-18T06:30:11;99351.59;;;19.74;73.88
72855;BME280;60991;51.278;22.550;2023-09-18T06:31:42;99347.22;;;19.78;73.66
72855;BME280;60991;51.278;22.550;2023-09-18T06:33:12;99350.81;;;19.87;73.60
72855;BME280;60991;51.278;22.550;2023-09-18T06:34:42;99354.78;;;19.90;73.42
72855;BME280;60991;51.278;22.550;2023-09-18T06:36:13;99348.31;;;19.91;73.55
72855;BME280;60991;51.278;22.550;2023-09-18T06:37:43;99347.41;;;19.95;73.67
72855;BME280;60991;51.278;22.550;2023-09-18T06:39:13;99349.91;;;20.05;73.22
72855;BME280;60991;51.278;22.550;2023-09-18T06:40:43;99347.81;;;20.16;72.80
72855;BME280;60991;51.278;22.550;2023-09-18T06:42:14;99349.78;;;20.24;72.64
72855;BME280;60991;51.278;22.550;2023-09-18T06:43:44;99359.97;;;20.27;72.57
72855;BME280;60991;51.278;22.550;2023-09-18T06:45:14;99355.56;;;20.31;72.50
72855;BME280;60991;51.278;22.550;2023-09-18T06:46:44;99355.88;;;20.30;72.57
72855;BME280;60991;51.278;22.550;2023-09-18T06:48:15;99356.31;;;20.37;72.42
72855;BME280;60991;51.278;22.550;2023-09-18T06:49:45;99361.47;;;20.47;72.28
72855;BME280;60991;51.278;22.550;2023-09-18T06:51:15;99358.38;;;20.54;72.03
72855;BME280;60991;51.278;22.550;2023-09-18T06:52:45;99355.72;;;20.62;71.72
72855;BME280;60991;51.278;22.550;2023-09-18T06:54:16;99351.44;;;20.61;71.72
72855;BME280;60991;51.278;22.550;2023-09-18T06:55:46;99347.22;;;20.69;71.66
72855;BME280;60991;51.278;22.550;2023-09-18T06:57:16;99349.03;;;20.73;71.50
72855;BME280;60991;51.278;22.550;2023-09-18T06:58:46;99346.69;;;20.81;71.43
72855;BME280;60991;51.278;22.550;2023-09-18T07:00:17;99350.56;;;20.88;71.24
72855;BME280;60991;51.278;22.550;2023-09-18T07:01:47;99355.34;;;20.91;71.23
72855;BME280;60991;51.278;22.550;2023-09-18T07:03:17;99350.56;;;20.88;71.21
72855;BME280;60991;51.278;22.550;2023-09-18T07:04:47;99345.34;;;20.92;71.39
72855;BME280;60991;51.278;22.550;2023-09-18T07:06:17;99342.69;;;21.00;70.92
72855;BME280;60991;51.278;22.550;2023-09-18T07:07:48;99339.19;;;21.00;71.05
72855;BME280;60991;51.278;22.550;2023-09-18T07:09:18;99345.28;;;21.05;70.76
72855;BME280;60991;51.278;22.550;2023-09-18T07:10:51;99339.97;;;21.14;70.41
72855;BME280;60991;51.278;22.550;2023-09-18T07:12:22;99347.72;;;21.16;70.82
72855;BME280;60991;51.278;22.550;2023-09-18T07:13:52;99350.34;;;21.21;70.63
72855;BME280;60991;51.278;22.550;2023-09-18T07:15:22;99352.31;;;21.29;70.37
72855;BME280;60991;51.278;22.550;2023-09-18T07:16:52;99342.94;;;21.35;70.42
72855;BME280;60991;51.278;22.550;2023-09-18T07:18:22;99342.50;;;21.41;70.12
72855;BME280;60991;51.278;22.550;2023-09-18T07:19:53;99341.78;;;21.50;69.98
72855;BME280;60991;51.278;22.550;2023-09-18T07:21:23;99347.81;;;21.55;69.76
72855;BME280;60991;51.278;22.550;2023-09-18T07:22:53;99343.53;;;21.54;69.48
72855;BME280;60991;51.278;22.550;2023-09-18T07:24:24;99344.63;;;21.53;69.46
72855;BME280;60991;51.278;22.550;2023-09-18T07:25:55;99355.44;;;21.53;69.37
72855;BME280;60991;51.278;22.550;2023-09-18T07:27:25;99347.19;;;21.58;69.30
72855;BME280;60991;51.278;22.550;2023-09-18T07:28:55;99342.47;;;21.64;69.56
72855;BME280;60991;51.278;22.550;2023-09-18T07:30:25;99346.31;;;21.71;69.14
72855;BME280;60991;51.278;22.550;2023-09-18T07:31:55;99344.56;;;21.75;69.26
72855;BME280;60991;51.278;22.550;2023-09-18T07:33:26;99341.75;;;21.81;69.04
72855;BME280;60991;51.278;22.550;2023-09-18T07:34:56;99338.72;;;21.82;68.55
72855;BME280;60991;51.278;22.550;2023-09-18T07:36:26;99341.31;;;21.87;68.68
72855;BME280;60991;51.278;22.550;2023-09-18T07:37:56;99337.81;;;21.87;68.24
72855;BME280;60991;51.278;22.550;2023-09-18T07:39:27;99346.41;;;21.89;68.68
72855;BME280;60991;51.278;22.550;2023-09-18T07:40:57;99345.91;;;21.87;68.27
72855;BME280;60991;51.278;22.550;2023-09-18T07:42:27;99341.13;;;21.92;68.09
72855;BME280;60991;51.278;22.550;2023-09-18T07:43:58;99338.91;;;21.94;68.11
72855;BME280;60991;51.278;22.550;2023-09-18T07:45:28;99340.50;;;21.95;68.53
72855;BME280;60991;51.278;22.550;2023-09-18T07:46:58;99344.19;;;21.99;68.21
72855;BME280;60991;51.278;22.550;2023-09-18T07:48:28;99346.00;;;22.04;68.34
72855;BME280;60991;51.278;22.550;2023-09-18T07:49:59;99353.63;;;22.02;68.33
72855;BME280;60991;51.278;22.550;2023-09-18T07:51:29;99347.72;;;22.00;67.92
72855;BME280;60991;51.278;22.550;2023-09-18T07:53:00;99352.81;;;22.01;67.86
72855;BME280;60991;51.278;22.550;2023-09-18T07:54:30;99349.31;;;22.01;67.51
72855;BME280;60991;51.278;22.550;2023-09-18T07:56:01;99351.50;;;21.99;67.70